Time;durP1;ratioP1;P1;durP2;ratioP2;P2;SDS_P1;SDS_P2;PMS_P1;PMS_P2;Temp;Humidity;BMP_temperature;BMP_pressure;BME280_temperature;BME280_humidity;BME280_pressure;Samples;Min_cycle;Max_cycle;Signal;HPM_P1;HPM_P2
2021/03/03 00:03:26;;;;;;;15.77;8.68;;;;;;;5.95;59.80;101802.59;8598695;33;20629;-71
2021/03/03 00:08:28;;;;;;;20.25;9.63;;;;;;;5.99;59.70;101789.13;8597559;33;20178;-71
2021/03/03 00:13:30;;;;;;;21.45;9.43;;;;;;;5.96;59.65;101787.44;8596765;33;20183;-71
2021/03/03 00:18:33;;;;;;;16.02;8.32;;;;;;;5.81;59.99;101793.38;8597946;33;20166;-71
2021/03/03 00:23:36;;;;;;;17.90;8.85;;;;;;;5.68;60.47;101785.00;8572707;33;20194;-71
2021/03/03 00:28:38;;;;;;;17.10;8.95;;;;;;;5.70;60.03;101783.13;8581873;33;20422;-71
2021/03/03 00:33:41;;;;;;;16.75;9.25;;;;;;;5.65;60.46;101775.31;8558722;33;20448;-71
2021/03/03 00:38:43;;;;;;;15.70;8.40;;;;;;;5.54;60.89;101782.84;8592433;33;20205;-72
2021/03/03 00:43:46;;;;;;;17.17;8.93;;;;;;;5.54;61.17;101784.63;8594943;33;20456;-72
2021/03/03 00:48:49;;;;;;;15.25;8.27;;;;;;;5.50;60.91;101781.22;8598294;33;20441;-71
2021/03/03 00:53:53;;;;;;;15.25;8.48;;;;;;;5.43;61.01;101782.34;8573838;33;20128;-71
2021/03/03 00:58:56;;;;;;;14.43;8.32;;;;;;;5.41;61.43;101773.59;8597805;33;20570;-71
2021/03/03 01:04:00;;;;;;;19.15;9.60;;;;;;;5.38;61.25;101774.56;8573258;33;20435;-71
2021/03/03 01:09:08;;;;;;;18.95;9.32;;;;;;;5.35;61.26;101771.13;8611919;33;20181;-72
2021/03/03 01:14:14;;;;;;;15.87;9.13;;;;;;;5.27;61.49;101772.28;8637785;33;20897;-71
2021/03/03 01:19:17;;;;;;;18.63;9.48;;;;;;;5.26;61.23;101767.00;8635512;33;20616;-71
2021/03/03 01:24:19;;;;;;;14.27;8.77;;;;;;;5.16;61.45;101765.63;8657734;33;20143;-71
2021/03/03 01:29:21;;;;;;;17.48;9.13;;;;;;;5.04;61.86;101750.94;8619460;33;20157;-72
2021/03/03 01:34:25;;;;;;;18.50;9.05;;;;;;;4.96;62.30;101751.16;8598860;33;20446;-72
2021/03/03 01:39:27;;;;;;;17.17;8.77;;;;;;;4.96;62.26;101743.19;8597886;33;20504;-71
2021/03/03 01:44:29;;;;;;;18.25;8.45;;;;;;;4.96;62.25;101745.84;8600917;33;21202;-69
2021/03/03 01:49:32;;;;;;;17.08;9.00;;;;;;;4.97;62.27;101744.06;8595814;33;20560;-70
2021/03/03 01:54:34;;;;;;;17.83;9.20;;;;;;;4.97;62.03;101744.06;8594753;33;20988;-70
2021/03/03 01:59:36;;;;;;;18.55;9.50;;;;;;;4.90;62.34;101739.88;8595124;33;20628;-70
2021/03/03 02:04:40;;;;;;;18.73;9.32;;;;;;;4.86;62.36;101741.78;8596520;33;20634;-71
2021/03/03 02:09:51;;;;;;;18.05;9.63;;;;;;;4.76;62.41;101740.38;8597961;33;21197;-70
2021/03/03 02:14:57;;;;;;;17.58;9.60;;;;;;;4.71;62.66;101737.00;8600497;33;20279;-72
2021/03/03 02:20:05;;;;;;;18.27;9.90;;;;;;;4.60;63.69;101734.72;8603481;33;20150;-70
2021/03/03 02:25:19;;;;;;;19.10;10.27;;;;;;;4.55;63.42;101731.31;8602874;33;20141;-70
2021/03/03 02:30:23;;;;;;;17.98;9.55;;;;;;;4.50;63.47;101739.50;8573869;33;20234;-70
2021/03/03 02:35:27;;;;;;;18.30;9.05;;;;;;;4.43;63.59;101727.31;8596389;33;20200;-73
2021/03/03 02:40:32;;;;;;;21.83;9.00;;;;;;;4.43;63.68;101726.44;8595355;33;20739;-70
2021/03/03 02:45:34;;;;;;;19.52;9.25;;;;;;;4.32;63.96;101721.47;8595865;33;20453;-71
2021/03/03 02:50:36;;;;;;;16.30;8.60;;;;;;;4.24;64.00;101719.06;8599199;33;21984;-72
2021/03/03 02:55:40;;;;;;;15.65;8.60;;;;;;;4.23;64.27;101712.03;8602538;33;20166;-70
2021/03/03 03:00:42;;;;;;;21.48;9.25;;;;;;;4.11;64.71;101709.75;8605162;33;20443;-72
2021/03/03 03:06:01;;;;;;;17.10;9.60;;;;;;;4.15;64.90;101704.28;8608716;33;20224;-70
2021/03/03 03:11:08;;;;;;;17.30;8.65;;;;;;;4.14;64.49;101696.34;8609562;33;20154;-71
2021/03/03 03:16:11;;;;;;;16.25;8.70;;;;;;;4.12;64.49;101698.22;8579414;33;20891;-72
2021/03/03 03:21:16;;;;;;;17.35;9.05;;;;;;;4.12;64.64;101695.56;8603055;33;20183;-72
2021/03/03 03:26:21;;;;;;;19.10;8.55;;;;;;;4.15;64.32;101698.97;8619498;33;20187;-72
2021/03/03 03:31:24;;;;;;;15.35;8.95;;;;;;;4.15;64.54;101695.44;8626117;33;20924;-72
2021/03/03 03:36:28;;;;;;;18.00;9.73;;;;;;;4.10;64.48;101705.38;8622044;33;20644;-72
2021/03/03 03:41:33;;;;;;;16.23;9.45;;;;;;;4.05;64.62;101694.00;8610297;33;21214;-71
2021/03/03 03:46:37;;;;;;;18.85;9.85;;;;;;;3.92;65.12;101685.56;8610879;33;21859;-72
2021/03/03 03:51:41;;;;;;;16.33;8.95;;;;;;;3.91;65.05;101682.03;8621542;33;20464;-72
2021/03/03 03:56:44;;;;;;;22.00;9.43;;;;;;;3.85;65.05;101686.69;8612531;33;20924;-71
2021/03/03 04:01:46;;;;;;;15.73;9.23;;;;;;;3.89;64.99;101683.84;8622675;33;20937;-71
2021/03/03 04:06:48;;;;;;;16.80;9.45;;;;;;;3.86;65.27;101685.75;8624603;33;20140;-72
2021/03/03 04:11:51;;;;;;;17.23;9.07;;;;;;;3.86;64.93;101678.66;8619800;33;20205;-72
2021/03/03 04:16:53;;;;;;;19.73;9.90;;;;;;;3.81;65.23;101680.56;8619692;33;20253;-72
2021/03/03 04:21:56;;;;;;;15.57;8.43;;;;;;;3.79;65.24;101671.81;8621031;33;20421;-72
2021/03/03 04:26:59;;;;;;;18.73;8.95;;;;;;;3.70;65.39;101666.75;8620008;33;20359;-71
2021/03/03 04:32:01;;;;;;;14.95;8.93;;;;;;;3.56;65.72;101675.19;8618799;33;20185;-71
2021/03/03 04:37:04;;;;;;;18.38;9.20;;;;;;;3.54;65.63;101678.78;8594677;33;20451;-72
2021/03/03 04:42:07;;;;;;;18.20;8.70;;;;;;;3.52;65.85;101675.34;8619601;33;21091;-72
2021/03/03 04:47:09;;;;;;;15.70;9.25;;;;;;;3.47;65.88;101678.13;8623987;33;20394;-72
2021/03/03 04:52:11;;;;;;;18.27;9.07;;;;;;;3.41;66.11;101673.88;8623893;33;20252;-72
2021/03/03 04:57:15;;;;;;;17.70;9.40;;;;;;;3.40;66.12;101672.16;8621272;33;20466;-72
2021/03/03 05:02:17;;;;;;;20.50;9.82;;;;;;;3.32;66.59;101665.31;8619033;33;20431;-73
2021/03/03 05:07:19;;;;;;;15.35;9.45;;;;;;;3.24;66.47;101662.91;8619477;33;20613;-73
2021/03/03 05:12:23;;;;;;;19.88;10.77;;;;;;;3.17;66.39;101664.00;8618978;33;20183;-73
2021/03/03 05:17:25;;;;;;;17.25;8.98;;;;;;;3.16;66.81;101655.16;8618751;33;20120;-72
2021/03/03 05:22:28;;;;;;;19.45;10.23;;;;;;;3.07;67.17;101650.09;8623385;33;20510;-72
2021/03/03 05:27:31;;;;;;;20.77;10.65;;;;;;;3.08;67.41;101657.19;8623762;33;21203;-72
2021/03/03 05:32:33;;;;;;;20.38;9.60;;;;;;;3.10;67.50;101647.38;8624697;33;21218;-72
2021/03/03 05:37:35;;;;;;;16.83;9.53;;;;;;;3.05;67.03;101636.88;8622834;33;20234;-71
2021/03/03 05:42:38;;;;;;;22.77;11.02;;;;;;;3.07;67.28;101636.81;8621266;33;20183;-72
2021/03/03 05:47:41;;;;;;;19.90;10.53;;;;;;;3.14;67.11;101634.88;8623082;33;20535;-72
2021/03/03 05:52:44;;;;;;;20.63;9.97;;;;;;;3.16;66.85;101625.09;8620860;33;20139;-72
2021/03/03 05:57:47;;;;;;;21.97;10.03;;;;;;;3.28;66.13;101632.66;8623018;33;20450;-71
2021/03/03 06:02:49;;;;;;;19.83;10.03;;;;;;;3.32;66.33;101626.34;8613307;33;20702;-71
2021/03/03 06:07:52;;;;;;;24.42;10.98;;;;;;;3.35;66.13;101636.88;8610421;33;20419;-72
2021/03/03 06:12:55;;;;;;;21.33;11.00;;;;;;;3.35;66.04;101630.72;8594949;33;20230;-72
2021/03/03 06:17:58;;;;;;;18.08;10.25;;;;;;;3.37;65.84;101634.16;8619396;33;20186;-72
2021/03/03 06:23:13;;;;;;;20.42;10.93;;;;;;;3.41;65.97;101628.72;8619255;33;20319;-72
2021/03/03 06:28:36;;;;;;;22.85;12.48;;;;;;;3.50;65.73;101640.84;8611906;33;20966;-72
2021/03/03 06:33:39;;;;;;;19.60;11.33;;;;;;;3.58;65.51;101628.19;8578795;33;20202;-72
2021/03/03 06:38:41;;;;;;;21.05;11.48;;;;;;;3.65;65.23;101643.00;8578239;33;20428;-72
2021/03/03 06:43:56;;;;;;;23.40;12.85;;;;;;;3.81;65.04;101638.03;8606425;33;21910;-71
2021/03/03 06:48:58;;;;;;;19.85;10.88;;;;;;;3.97;64.48;101629.56;8603438;33;20886;-73
2021/03/03 06:54:04;;;;;;;19.85;10.77;;;;;;;4.26;63.76;101639.22;8602292;33;20516;-72
2021/03/03 06:59:21;;;;;;;19.40;11.13;;;;;;;4.60;62.94;101642.41;8605926;33;20507;-71
2021/03/03 07:04:32;;;;;;;18.70;10.20;;;;;;;4.90;61.89;101644.88;8621552;33;20556;-72
2021/03/03 07:09:40;;;;;;;20.20;10.55;;;;;;;4.95;61.92;101639.38;8621073;33;20996;-71
2021/03/03 07:14:46;;;;;;;21.30;10.63;;;;;;;4.97;61.62;101641.06;8619932;33;20675;-72
2021/03/03 07:19:50;;;;;;;21.23;12.52;;;;;;;5.19;61.22;101648.28;8625283;33;20426;-72
2021/03/03 07:24:56;;;;;;;24.40;11.63;;;;;;;5.46;60.64;101635.69;8620806;33;20703;-72
2021/03/03 07:30:01;;;;;;;23.00;13.00;;;;;;;5.40;60.30;101641.22;8623749;33;20287;-72
2021/03/03 07:35:06;;;;;;;22.52;12.25;;;;;;;5.26;60.85;101649.78;8597841;33;20150;-70
2021/03/03 07:40:11;;;;;;;18.38;11.35;;;;;;;5.19;61.59;101646.50;8610727;33;20876;-70
2021/03/03 07:45:17;;;;;;;21.88;11.63;;;;;;;5.51;60.59;101639.00;8604653;33;20405;-71
2021/03/03 07:50:22;;;;;;;23.15;12.63;;;;;;;5.82;59.97;101645.78;8610145;33;20151;-70
2021/03/03 07:55:25;;;;;;;21.65;11.85;;;;;;;5.73;59.54;101652.34;8573338;33;20242;-70
2021/03/03 08:00:33;;;;;;;26.25;13.60;;;;;;;5.36;60.55;101652.97;8598268;33;20175;-70
2021/03/03 08:05:48;;;;;;;20.00;11.65;;;;;;;5.37;61.25;101654.69;8575551;33;20448;-70
2021/03/03 08:10:52;;;;;;;24.83;12.02;;;;;;;5.36;60.99;101651.16;8603444;33;20508;-70
2021/03/03 08:16:11;;;;;;;20.67;11.68;;;;;;;5.71;60.64;101646.22;8601701;33;20483;-70
2021/03/03 08:21:26;;;;;;;20.25;11.88;;;;;;;6.36;59.18;101645.25;8606753;33;20124;-71
2021/03/03 08:26:38;;;;;;;20.15;11.60;;;;;;;6.77;57.77;101641.66;8599277;33;20405;-70
2021/03/03 08:31:46;;;;;;;24.42;11.88;;;;;;;6.72;57.46;101639.22;8600192;33;20444;-70
2021/03/03 08:37:00;;;;;;;18.83;10.05;;;;;;;6.81;58.62;101632.59;8600089;33;20614;-70
2021/03/03 08:42:28;;;;;;;17.80;10.13;;;;;;;7.40;57.94;101633.44;8598780;33;20959;-70
2021/03/03 08:47:59;;;;;;;18.45;10.27;;;;;;;7.75;56.38;101620.16;8599794;33;20449;-71
2021/03/03 08:53:26;;;;;;;18.52;11.30;;;;;;;8.13;55.58;101618.22;8598560;33;20424;-71
2021/03/03 08:58:59;;;;;;;23.85;11.40;;;;;;;8.33;54.86;101615.38;8592660;33;21043;-72
2021/03/03 09:04:03;;;;;;;20.80;11.13;;;;;;;8.47;53.98;101611.16;8594141;33;20967;-71
2021/03/03 09:09:10;;;;;;;16.98;9.73;;;;;;;8.47;54.59;101606.66;8568517;33;21204;-72
2021/03/03 09:14:13;;;;;;;17.98;11.13;;;;;;;8.55;54.61;101596.41;8594873;33;20230;-71
2021/03/03 09:19:16;;;;;;;18.25;10.45;;;;;;;8.80;54.62;101597.75;8594275;33;20580;-71
2021/03/03 09:24:19;;;;;;;20.08;11.23;;;;;;;8.90;53.89;101603.50;8589494;33;20242;-72
2021/03/03 09:29:26;;;;;;;22.85;12.18;;;;;;;9.21;53.23;101608.00;8586061;33;20431;-71
2021/03/03 09:34:32;;;;;;;19.20;12.13;;;;;;;10.06;51.54;101590.63;8584058;33;20147;-70
2021/03/03 09:39:34;;;;;;;20.33;11.27;;;;;;;10.82;49.90;101588.59;8585341;33;21100;-70
2021/03/03 09:44:50;;;;;;;24.77;12.30;;;;;;;11.23;49.32;101586.94;8585177;33;20456;-71
2021/03/03 09:49:54;;;;;;;19.25;11.68;;;;;;;11.88;48.48;101580.88;8567597;33;20469;-72
2021/03/03 09:54:56;;;;;;;23.98;12.73;;;;;;;12.06;47.46;101574.22;8616525;33;20586;-72
2021/03/03 09:59:58;;;;;;;29.58;14.57;;;;;;;11.46;49.20;101567.50;8614930;33;20420;-72
2021/03/03 10:05:02;;;;;;;31.20;14.70;;;;;;;11.51;50.08;101572.53;8620483;33;20176;-71
2021/03/03 10:10:06;;;;;;;27.52;16.13;;;;;;;11.82;49.40;101568.69;8616358;33;20265;-71
2021/03/03 10:15:10;;;;;;;29.88;15.68;;;;;;;12.15;48.37;101562.81;8594842;33;20602;-70
2021/03/03 10:20:39;;;;;;;27.52;16.02;;;;;;;12.59;46.82;101558.88;8590908;33;20301;-71
2021/03/03 10:25:45;;;;;;;26.40;14.80;;;;;;;13.01;46.90;101570.22;8591126;33;20506;-72
2021/03/03 10:30:49;;;;;;;23.05;14.02;;;;;;;13.57;45.26;101564.34;8591558;33;20152;-71
2021/03/03 10:35:53;;;;;;;23.23;10.55;;;;;;;13.68;41.37;101547.31;8588261;33;20191;-70
2021/03/03 10:40:58;;;;;;;20.40;10.27;;;;;;;13.67;39.94;101559.97;8588877;33;20405;-70
2021/03/03 10:46:11;;;;;;;19.95;10.07;;;;;;;13.01;43.63;101578.31;8588020;33;20212;-71
2021/03/03 10:51:17;;;;;;;20.98;10.57;;;;;;;12.71;43.85;101564.34;8583595;33;20406;-70
2021/03/03 10:56:24;;;;;;;17.35;9.48;;;;;;;12.55;44.93;101557.34;8582972;33;20449;-70
2021/03/03 11:01:42;;;;;;;23.42;11.13;;;;;;;12.52;44.33;101554.03;8583958;33;20982;-70
2021/03/03 11:06:46;;;;;;;22.58;10.43;;;;;;;12.71;43.41;101543.66;8585861;33;20166;-70
2021/03/03 11:11:49;;;;;;;23.67;10.65;;;;;;;12.73;41.81;101541.72;8589863;33;20473;-70
2021/03/03 11:16:52;;;;;;;25.13;9.88;;;;;;;13.48;40.79;101529.94;8583396;33;20444;-70
2021/03/03 11:21:56;;;;;;;25.08;11.48;;;;;;;13.56;40.45;101532.06;8588487;33;21482;-70
2021/03/03 11:26:59;;;;;;;21.83;10.52;;;;;;;13.80;39.83;101527.50;8588386;33;20253;-69
2021/03/03 11:32:01;;;;;;;28.08;12.23;;;;;;;14.19;38.66;101521.84;8589277;33;20514;-69
2021/03/03 11:37:05;;;;;;;22.92;9.98;;;;;;;14.51;39.01;101528.28;8592167;33;20827;-69
2021/03/03 11:42:07;;;;;;;27.13;12.52;;;;;;;15.01;38.41;101507.09;8595921;33;20426;-69
2021/03/03 11:47:09;;;;;;;22.38;9.93;;;;;;;14.46;39.81;101494.50;8604873;33;20427;-69
2021/03/03 11:52:13;;;;;;;25.00;12.63;;;;;;;15.18;38.68;101499.44;8609717;33;20442;-69
2021/03/03 11:57:15;;;;;;;26.30;12.70;;;;;;;15.58;36.96;101483.44;8621869;33;20516;-69
2021/03/03 12:02:18;;;;;;;25.67;12.18;;;;;;;15.99;37.56;101470.00;8622290;33;20208;-70
2021/03/03 12:07:21;;;;;;;33.47;13.80;;;;;;;15.64;37.30;101471.22;8620901;33;20285;-70
2021/03/03 12:12:23;;;;;;;25.60;12.15;;;;;;;15.03;38.88;101459.13;8620882;33;20224;-70
2021/03/03 12:17:27;;;;;;;29.83;13.43;;;;;;;14.52;39.91;101458.84;8619711;33;21582;-70
2021/03/03 12:22:34;;;;;;;25.25;13.20;;;;;;;15.37;38.35;101447.34;8616863;33;20411;-71
2021/03/03 12:27:36;;;;;;;28.52;14.35;;;;;;;15.91;38.14;101439.03;8607383;33;20221;-69
2021/03/03 12:32:39;;;;;;;30.38;14.18;;;;;;;16.20;36.79;101435.59;8620391;33;20533;-69
2021/03/03 12:37:42;;;;;;;29.25;14.07;;;;;;;16.00;37.78;101440.06;8618877;33;20220;-70
2021/03/03 12:42:45;;;;;;;37.90;14.70;;;;;;;16.01;38.10;101436.38;8615739;33;20568;-69
2021/03/03 12:47:47;;;;;;;33.97;16.40;;;;;;;16.33;38.83;101428.13;8616819;33;20461;-69
2021/03/03 12:52:50;;;;;;;32.95;16.30;;;;;;;16.06;39.33;101417.84;8621525;33;20223;-71
2021/03/03 12:57:52;;;;;;;31.10;17.20;;;;;;;16.54;37.71;101410.94;8616121;33;20143;-71
2021/03/03 13:02:55;;;;;;;32.92;14.95;;;;;;;16.25;38.00;101406.25;8615273;33;20710;-71
2021/03/03 13:07:58;;;;;;;33.08;15.90;;;;;;;16.72;38.25;101400.28;8618822;33;20430;-71
2021/03/03 13:13:00;;;;;;;34.35;16.98;;;;;;;17.42;37.64;101390.19;8618054;33;20509;-71
2021/03/03 13:18:02;;;;;;;34.33;17.52;;;;;;;17.19;37.54;101376.03;8619145;33;20148;-71
2021/03/03 13:23:06;;;;;;;35.33;16.83;;;;;;;17.84;37.58;101382.50;8620153;33;20466;-72
2021/03/03 13:28:08;;;;;;;39.75;17.77;;;;;;;16.78;38.99;101368.03;8621151;33;20189;-69
2021/03/03 13:33:12;;;;;;;38.50;18.60;;;;;;;17.82;37.05;101362.75;8627251;33;20430;-70
2021/03/03 13:38:15;;;;;;;36.50;18.80;;;;;;;17.63;37.85;101352.81;8626534;33;20213;-70
2021/03/03 13:43:18;;;;;;;37.40;19.17;;;;;;;17.80;37.74;101353.94;8624987;33;20198;-71
2021/03/03 13:48:20;;;;;;;42.17;21.08;;;;;;;17.28;37.94;101348.03;8628291;33;20504;-70
2021/03/03 13:53:24;;;;;;;45.08;20.15;;;;;;;16.33;39.47;101345.94;8629415;33;20413;-70
2021/03/03 13:58:26;;;;;;;41.75;19.48;;;;;;;17.22;38.20;101335.91;8629901;33;20231;-71
2021/03/03 14:03:28;;;;;;;42.90;17.25;;;;;;;16.59;39.35;101328.16;8632691;33;20268;-70
2021/03/03 14:08:32;;;;;;;39.50;20.10;;;;;;;16.48;39.95;101333.72;8630140;33;20444;-71
2021/03/03 14:13:34;;;;;;;38.00;20.35;;;;;;;16.69;40.09;101327.31;8629146;33;20139;-71
2021/03/03 14:18:37;;;;;;;43.17;22.50;;;;;;;16.76;40.70;101325.75;8632018;33;20428;-71
2021/03/03 14:23:41;;;;;;;37.90;19.30;;;;;;;15.80;42.02;101327.19;8629762;33;20520;-71
2021/03/03 14:28:43;;;;;;;42.65;22.10;;;;;;;15.58;42.78;101333.63;8630763;33;20953;-70
2021/03/03 14:33:45;;;;;;;44.28;22.08;;;;;;;16.46;40.99;101321.28;8630690;33;20443;-70
2021/03/03 14:38:48;;;;;;;45.60;21.60;;;;;;;17.12;40.31;101316.00;8630619;33;20853;-71
2021/03/03 14:43:51;;;;;;;39.72;19.83;;;;;;;15.38;42.95;101319.09;8602383;33;20563;-70
2021/03/03 14:48:54;;;;;;;47.78;23.05;;;;;;;15.59;43.08;101321.81;8624587;33;21885;-70
2021/03/03 14:53:57;;;;;;;44.45;23.27;;;;;;;15.20;43.71;101319.69;8623268;33;20201;-70
2021/03/03 14:59:00;;;;;;;48.60;23.55;;;;;;;14.75;44.96;101310.91;8619601;33;20225;-71
2021/03/03 15:04:02;;;;;;;42.13;21.35;;;;;;;15.05;45.06;101310.16;8618084;33;20425;-72
2021/03/03 15:09:06;;;;;;;46.60;22.42;;;;;;;14.68;45.49;101321.41;8618831;33;20409;-70
2021/03/03 15:14:11;;;;;;;47.85;24.48;;;;;;;14.39;46.43;101307.59;8622860;33;20450;-70
2021/03/03 15:19:13;;;;;;;46.75;21.52;;;;;;;14.03;47.29;101306.03;8621858;33;20398;-70
2021/03/03 15:24:16;;;;;;;50.30;24.98;;;;;;;14.04;47.50;101303.22;8627022;33;20547;-70
2021/03/03 15:29:18;;;;;;;52.72;26.40;;;;;;;14.43;46.59;101292.84;8628457;33;20231;-71
2021/03/03 15:34:21;;;;;;;57.03;28.67;;;;;;;14.30;47.09;101287.56;8626118;33;20217;-70
2021/03/03 15:39:24;;;;;;;56.70;28.58;;;;;;;14.64;46.83;101290.19;8626054;33;20429;-70
2021/03/03 15:44:26;;;;;;;56.90;28.80;;;;;;;14.24;47.95;101292.63;8620031;33;20530;-70
2021/03/03 15:49:30;;;;;;;54.33;28.33;;;;;;;14.30;47.57;101286.72;8620105;33;20692;-71
2021/03/03 15:54:33;;;;;;;54.42;28.92;;;;;;;14.01;48.58;101283.69;8623160;33;20186;-70
2021/03/03 15:59:36;;;;;;;60.47;30.58;;;;;;;13.21;50.07;101287.31;8647947;33;20459;-70
2021/03/03 16:04:38;;;;;;;61.22;30.15;;;;;;;13.58;49.47;101285.31;8647167;33;20178;-70
2021/03/03 16:09:41;;;;;;;61.45;30.17;;;;;;;13.26;50.25;101282.41;8680634;33;20308;-70
2021/03/03 16:14:43;;;;;;;67.13;32.30;;;;;;;13.05;51.20;101283.13;8629806;33;20182;-71
2021/03/03 16:19:48;;;;;;;57.30;31.02;;;;;;;13.03;51.38;101274.28;8625982;33;20413;-71
2021/03/03 16:24:51;;;;;;;63.47;29.92;;;;;;;12.79;51.88;101273.47;8625544;33;20784;-71
2021/03/03 16:29:53;;;;;;;58.28;30.92;;;;;;;12.61;52.42;101256.84;8603647;33;20937;-70
2021/03/03 16:34:56;;;;;;;63.85;31.55;;;;;;;12.36;53.19;101258.69;8625188;33;20190;-70
2021/03/03 16:39:59;;;;;;;73.75;33.63;;;;;;;12.00;54.18;101258.72;8620783;33;20498;-70
2021/03/03 16:45:01;;;;;;;65.82;33.08;;;;;;;11.82;54.39;101268.97;8602422;33;20499;-70
2021/03/03 16:50:08;;;;;;;71.43;35.67;;;;;;;11.54;55.31;101259.34;8614390;33;21999;-71
2021/03/03 16:55:12;;;;;;;70.60;33.45;;;;;;;11.71;54.68;101259.88;8603633;33;20963;-70
2021/03/03 17:00:16;;;;;;;64.90;32.65;;;;;;;11.50;55.23;101266.78;8606378;33;20686;-70
2021/03/03 17:05:19;;;;;;;71.97;31.90;;;;;;;10.90;56.15;101264.69;8604772;33;20285;-70
2021/03/03 17:10:22;;;;;;;62.92;30.70;;;;;;;10.93;56.38;101262.63;8604381;33;20162;-70
2021/03/03 17:15:25;;;;;;;69.00;31.75;;;;;;;11.06;55.69;101266.19;8603919;33;20726;-70
2021/03/03 17:20:27;;;;;;;66.85;32.42;;;;;;;11.04;55.72;101270.81;8637797;33;20496;-70
2021/03/03 17:25:30;;;;;;;67.78;30.85;;;;;;;11.01;55.62;101272.84;8644537;33;20131;-70
2021/03/03 17:30:33;;;;;;;69.13;31.73;;;;;;;10.87;55.94;101272.94;8623366;33;20586;-70
2021/03/03 17:35:35;;;;;;;71.00;31.25;;;;;;;10.81;55.97;101288.53;8643733;33;20225;-70
2021/03/03 17:40:39;;;;;;;65.43;31.40;;;;;;;10.70;56.17;101282.16;8622943;33;20856;-72
2021/03/03 17:45:41;;;;;;;65.25;32.75;;;;;;;10.60;56.53;101284.59;8614416;33;20185;-71
2021/03/03 17:50:57;;;;;;;68.80;32.53;;;;;;;10.49;56.74;101281.75;8596155;33;20590;-72
2021/03/03 17:56:00;;;;;;;67.57;33.60;;;;;;;10.46;56.77;101280.13;8634149;33;20492;-71
2021/03/03 18:01:02;;;;;;;77.10;33.97;;;;;;;10.45;57.15;101296.34;8615313;33;21348;-71
2021/03/03 18:06:05;;;;;;;65.40;31.27;;;;;;;10.38;57.22;101291.38;8618579;33;20166;-72
2021/03/03 18:11:08;;;;;;;64.75;33.38;;;;;;;10.35;57.30;101293.44;8624359;33;20185;-72
2021/03/03 18:16:11;;;;;;;71.43;35.50;;;;;;;10.33;57.46;101301.56;8640831;33;20214;-71
2021/03/03 18:21:13;;;;;;;68.00;34.97;;;;;;;10.27;57.68;101293.06;8625333;33;20177;-72
2021/03/03 18:26:17;;;;;;;65.93;33.22;;;;;;;10.15;58.24;101287.53;8620956;33;20631;-71
2021/03/03 18:31:20;;;;;;;70.93;34.33;;;;;;;10.11;58.22;101277.09;8572148;33;20920;-72
2021/03/03 18:36:22;;;;;;;73.53;36.58;;;;;;;10.05;58.53;101275.66;8596681;33;20511;-71
2021/03/03 18:41:26;;;;;;;71.00;36.50;;;;;;;10.03;58.78;101268.66;8656030;33;20220;-71
2021/03/03 18:46:33;;;;;;;78.10;35.58;;;;;;;9.93;58.88;101263.91;8661468;33;20246;-71
2021/03/03 18:51:36;;;;;;;79.57;35.47;;;;;;;9.76;60.00;101261.38;8618209;33;20919;-72
2021/03/03 18:56:39;;;;;;;78.60;37.80;;;;;;;9.68;60.18;101251.16;8635589;33;20146;-72
2021/03/03 19:01:41;;;;;;;79.70;36.72;;;;;;;9.70;59.94;101249.22;8654324;33;20674;-71
2021/03/03 19:06:44;;;;;;;80.35;39.05;;;;;;;9.60;60.26;101245.44;8655184;33;20429;-71
2021/03/03 19:11:47;;;;;;;79.80;38.70;;;;;;;9.55;60.50;101246.69;8658230;33;20444;-72
2021/03/03 19:16:50;;;;;;;88.53;40.03;;;;;;;9.49;60.61;101234.53;8655568;33;20563;-71
2021/03/03 19:21:52;;;;;;;98.38;46.25;;;;;;;9.37;61.11;101243.31;8654915;33;20441;-72
2021/03/03 19:26:55;;;;;;;98.93;46.13;;;;;;;9.36;61.10;101237.09;8654220;33;20138;-72
2021/03/03 19:31:57;;;;;;;98.15;43.33;;;;;;;9.31;61.27;101236.50;8651834;33;20151;-72
2021/03/03 19:37:01;;;;;;;92.38;45.00;;;;;;;9.22;61.21;101231.75;8648136;33;20178;-72
2021/03/03 19:42:06;;;;;;;102.25;45.38;;;;;;;8.93;61.61;101244.22;8627274;33;20525;-73
2021/03/03 19:47:08;;;;;;;84.85;42.85;;;;;;;8.69;62.07;101228.66;8586320;33;20194;-72
2021/03/03 19:52:13;;;;;;;114.32;51.97;;;;;;;8.48;62.58;101225.47;8563091;33;20411;-71
2021/03/03 19:57:17;;;;;;;156.48;68.18;;;;;;;8.44;63.07;101229.22;8587699;33;20687;-73
2021/03/03 20:02:19;;;;;;;111.43;53.22;;;;;;;8.50;63.32;101225.34;8587760;33;20148;-72
2021/03/03 20:07:22;;;;;;;102.05;46.45;;;;;;;8.53;63.42;101226.06;8590885;33;21037;-73
2021/03/03 20:12:27;;;;;;;90.35;43.53;;;;;;;8.57;63.77;101230.25;8585392;33;20415;-73
2021/03/03 20:17:29;;;;;;;86.68;41.28;;;;;;;8.58;63.62;101223.97;8574778;33;20453;-72
2021/03/03 20:22:31;;;;;;;89.72;45.45;;;;;;;8.56;63.19;101225.88;8575274;33;20418;-72
2021/03/03 20:27:35;;;;;;;98.03;45.10;;;;;;;8.52;63.24;101221.63;8581830;33;20187;-72
2021/03/03 20:32:37;;;;;;;86.60;39.85;;;;;;;8.51;62.79;101219.91;8629067;33;21415;-72
2021/03/03 20:37:41;;;;;;;81.75;39.95;;;;;;;8.43;62.94;101218.63;8633685;33;20444;-72
2021/03/03 20:42:46;;;;;;;82.05;38.35;;;;;;;8.36;62.86;101216.31;8635824;33;20396;-73
2021/03/03 20:47:49;;;;;;;75.63;36.10;;;;;;;8.30;62.53;101211.28;8631325;33;20398;-72
2021/03/03 20:52:51;;;;;;;78.50;37.85;;;;;;;8.22;62.40;101215.38;8630800;33;20415;-74
2021/03/03 20:57:54;;;;;;;76.20;36.28;;;;;;;8.11;62.81;101208.81;8572589;33;20140;-73
2021/03/03 21:02:56;;;;;;;84.30;37.92;;;;;;;8.02;63.18;101211.19;8608613;33;20185;-72
2021/03/03 21:08:00;;;;;;;81.75;37.13;;;;;;;7.93;63.62;101204.53;8596907;33;20452;-72
2021/03/03 21:13:03;;;;;;;82.68;38.25;;;;;;;7.95;63.14;101191.91;8589881;33;20182;-72
2021/03/03 21:18:06;;;;;;;75.97;35.55;;;;;;;7.91;62.87;101180.53;8600202;33;20182;-71
2021/03/03 21:23:08;;;;;;;72.15;36.42;;;;;;;7.90;62.53;101183.31;8632968;33;20137;-72
2021/03/03 21:28:11;;;;;;;73.78;33.75;;;;;;;7.91;62.55;101185.88;8660382;33;20893;-73
2021/03/03 21:33:13;;;;;;;70.45;32.60;;;;;;;7.90;62.38;101178.81;8662235;33;20238;-70
2021/03/03 21:38:16;;;;;;;64.30;33.47;;;;;;;7.88;61.89;101180.72;8662574;33;20546;-71
2021/03/03 21:43:32;;;;;;;70.55;32.55;;;;;;;7.80;62.18;101182.97;8656871;33;20623;-71
2021/03/03 21:48:34;;;;;;;67.50;33.35;;;;;;;7.70;61.96;101177.25;8656203;33;20161;-73
2021/03/03 21:53:36;;;;;;;71.45;32.17;;;;;;;7.51;62.07;101176.56;8639817;33;21086;-72
2021/03/03 21:58:39;;;;;;;72.22;31.25;;;;;;;7.46;61.95;101171.50;8590047;33;20171;-72
2021/03/03 22:03:41;;;;;;;70.63;31.42;;;;;;;7.49;61.65;101171.31;8590733;33;20275;-72
2021/03/03 22:08:44;;;;;;;56.55;28.13;;;;;;;7.41;61.07;101167.34;8594641;33;20457;-72
2021/03/03 22:13:47;;;;;;;60.92;28.27;;;;;;;7.25;61.16;101160.16;8589163;33;20425;-72
2021/03/03 22:18:49;;;;;;;62.28;27.50;;;;;;;7.24;60.84;101162.91;8574366;33;20155;-72
2021/03/03 22:23:52;;;;;;;52.95;26.98;;;;;;;7.20;60.99;101159.56;8597031;33;20190;-74
2021/03/03 22:28:55;;;;;;;59.15;27.88;;;;;;;7.13;61.13;101147.50;8596639;33;20419;-72
2021/03/03 22:33:57;;;;;;;56.95;27.58;;;;;;;7.14;61.00;101145.69;8595227;33;20925;-73
2021/03/03 22:38:59;;;;;;;66.00;28.50;;;;;;;7.09;60.84;101145.06;8595428;33;20238;-73
2021/03/03 22:44:02;;;;;;;64.28;27.85;;;;;;;7.06;61.07;101144.28;8595405;33;20237;-70
2021/03/03 22:49:09;;;;;;;61.70;29.27;;;;;;;6.98;61.22;101142.97;8572220;33;20419;-70
2021/03/03 22:54:12;;;;;;;59.78;27.42;;;;;;;6.88;61.85;101147.94;8595378;33;20513;-72
2021/03/03 22:59:15;;;;;;;60.67;27.83;;;;;;;6.81;61.78;101144.69;8594892;33;21428;-72
2021/03/03 23:04:18;;;;;;;63.67;28.13;;;;;;;6.75;62.32;101130.84;8625058;33;20237;-73
2021/03/03 23:09:23;;;;;;;63.72;29.13;;;;;;;6.71;62.63;101135.44;8658669;33;20567;-73
2021/03/03 23:14:27;;;;;;;62.33;31.33;;;;;;;6.71;62.78;101126.56;8629716;33;20244;-72
2021/03/03 23:19:32;;;;;;;68.28;30.65;;;;;;;6.70;62.79;101122.19;8590281;33;20329;-71